createdAt,value
2016-10-16T00:00:41.090Z,6.62
2016-10-16T00:01:41.135Z,6.55
2016-10-16T00:02:41.120Z,6.37
2016-10-16T00:03:41.044Z,6.37
2016-10-16T00:04:41.015Z,6.29
2016-10-16T00:05:42.071Z,6.24
2016-10-16T00:06:41.098Z,6.17
2016-10-16T00:07:41.083Z,6.06
2016-10-16T00:08:41.146Z,6.06
2016-10-16T00:09:41.072Z,6.52
2016-10-16T00:10:41.093Z,6.83
2016-10-16T00:11:41.085Z,6.8
2016-10-16T00:12:41.060Z,6.64
2016-10-16T00:13:41.003Z,6.37
2016-10-16T00:14:41.077Z,6.39
2016-10-16T00:15:41.156Z,6.34
2016-10-16T00:16:41.149Z,6.31
2016-10-16T00:17:41.109Z,6.18
2016-10-16T00:18:41.052Z,6.18
2016-10-16T00:19:41.171Z,6.05
2016-10-16T00:20:41.031Z,6.03
2016-10-16T00:21:41.375Z,5.99
2016-10-16T00:22:41.131Z,6.13
2016-10-16T00:23:41.107Z,6.15
2016-10-16T00:24:41.151Z,5.99
2016-10-16T00:25:41.116Z,6.03
2016-10-16T00:26:41.118Z,5.89
2016-10-16T00:27:41.059Z,5.84
2016-10-16T00:28:41.071Z,5.87
2016-10-16T00:29:41.131Z,6.13
2016-10-16T00:30:41.147Z,6.98
2016-10-16T00:31:41.133Z,7.68
2016-10-16T00:32:41.148Z,8.04
2016-10-16T00:33:41.203Z,8.13
2016-10-16T00:34:41.177Z,8.22
2016-10-16T00:35:41.176Z,8.16
2016-10-16T00:36:41.212Z,8.09
2016-10-16T00:37:41.333Z,7.89
2016-10-16T00:38:41.171Z,7.88
2016-10-16T00:39:41.180Z,7.92
2016-10-16T00:40:41.113Z,7.82
2016-10-16T00:41:41.197Z,7.88
2016-10-16T00:42:41.172Z,7.55
2016-10-16T00:43:41.132Z,7.41
2016-10-16T00:44:41.203Z,7.29
2016-10-16T00:45:41.110Z,7.26
2016-10-16T00:46:41.084Z,7.31
2016-10-16T00:47:41.212Z,7.16
2016-10-16T00:48:41.161Z,7.19
2016-10-16T00:49:41.214Z,7.3
2016-10-16T00:50:41.211Z,7.44
2016-10-16T00:51:41.230Z,7.51
2016-10-16T00:52:41.252Z,7.48
2016-10-16T00:53:41.333Z,7.64
2016-10-16T00:54:41.194Z,7.61
2016-10-16T00:55:41.283Z,7.55
2016-10-16T00:56:41.270Z,7.22
2016-10-16T00:57:41.199Z,6.93
2016-10-16T00:58:41.212Z,6.73
2016-10-16T00:59:41.282Z,6.49
2016-10-16T01:00:41.266Z,6.49
2016-10-16T01:01:41.202Z,6.37
2016-10-16T01:02:41.296Z,6.68
2016-10-16T01:03:41.259Z,6.82
2016-10-16T01:04:41.221Z,7.3
2016-10-16T01:05:41.146Z,7.26
2016-10-16T01:06:41.211Z,7.23
2016-10-16T01:07:41.258Z,7.11
2016-10-16T01:08:41.267Z,6.79
2016-10-16T01:09:41.336Z,6.7
2016-10-16T01:10:41.318Z,6.46
2016-10-16T01:11:41.689Z,6.4
2016-10-16T01:12:41.201Z,6.14
2016-10-16T01:13:41.261Z,6.03
2016-10-16T01:14:41.277Z,6.14
2016-10-16T01:15:41.167Z,6.07
2016-10-16T01:16:41.249Z,6.05
2016-10-16T01:17:41.256Z,6.03
2016-10-16T01:18:41.286Z,6.1
2016-10-16T01:19:41.318Z,6.05
2016-10-16T01:20:41.285Z,6.09
2016-10-16T01:21:41.299Z,6.28
2016-10-16T01:22:41.299Z,6.4
2016-10-16T01:23:41.263Z,7.18
2016-10-16T01:24:41.305Z,7.55
2016-10-16T01:25:41.386Z,7.49
2016-10-16T01:26:41.317Z,7.41
2016-10-16T01:27:41.307Z,7.21
2016-10-16T01:28:41.200Z,7.01
2016-10-16T01:29:41.287Z,6.83
2016-10-16T01:30:41.389Z,6.61
2016-10-16T01:31:41.279Z,7.31
2016-10-16T01:32:41.291Z,7.78
2016-10-16T01:33:41.296Z,7.47
2016-10-16T01:34:41.360Z,7.67
2016-10-16T01:35:41.389Z,7.47
2016-10-16T01:36:41.355Z,7.3
2016-10-16T01:37:41.359Z,7
2016-10-16T01:38:41.260Z,6.82
2016-10-16T01:39:41.358Z,6.78
2016-10-16T01:40:41.340Z,6.62
2016-10-16T01:41:41.536Z,6.39
2016-10-16T01:42:41.408Z,6.21
2016-10-16T01:43:41.406Z,6.15
2016-10-16T01:44:41.315Z,6.13
2016-10-16T01:45:41.284Z,5.98
2016-10-16T01:46:41.388Z,5.91
2016-10-16T01:47:41.327Z,5.92
2016-10-16T01:48:41.413Z,5.96
2016-10-16T01:49:41.371Z,5.82
2016-10-16T01:50:41.286Z,5.82
2016-10-16T01:51:41.374Z,5.91
2016-10-16T01:52:41.373Z,5.84
2016-10-16T01:53:41.331Z,5.91
2016-10-16T01:54:41.351Z,5.92
2016-10-16T01:55:41.277Z,6.03
2016-10-16T01:56:41.345Z,6.07
2016-10-16T01:57:41.420Z,5.98
2016-10-16T01:58:41.401Z,5.84
2016-10-16T01:59:41.316Z,5.87
2016-10-16T02:00:41.410Z,5.91
2016-10-16T02:01:41.385Z,5.98
2016-10-16T02:02:41.460Z,5.81
2016-10-16T02:03:41.451Z,5.69
2016-10-16T02:04:41.303Z,5.67
2016-10-16T02:05:41.378Z,5.69
2016-10-16T02:06:41.370Z,5.7
2016-10-16T02:07:41.458Z,5.69
2016-10-16T02:08:41.429Z,5.72
2016-10-16T02:09:41.426Z,5.62
2016-10-16T02:10:41.343Z,5.57
2016-10-16T02:11:41.452Z,5.52
2016-10-16T02:12:41.440Z,5.66
2016-10-16T02:13:41.601Z,5.55
2016-10-16T02:14:41.356Z,5.55
2016-10-16T02:15:41.430Z,5.59
2016-10-16T02:16:41.433Z,5.52
2016-10-16T02:17:41.411Z,5.52
2016-10-16T02:18:41.477Z,5.55
2016-10-16T02:19:41.374Z,5.51
2016-10-16T02:20:41.502Z,5.52
2016-10-16T02:21:41.428Z,5.51
2016-10-16T02:22:41.456Z,5.59
2016-10-16T02:23:41.469Z,5.51
2016-10-16T02:24:41.430Z,5.52
2016-10-16T02:25:41.506Z,5.54
2016-10-16T02:26:41.433Z,5.51
2016-10-16T02:27:41.500Z,5.48
2016-10-16T02:28:41.409Z,5.48
2016-10-16T02:29:41.517Z,5.45
2016-10-16T02:30:41.371Z,5.49
2016-10-16T02:31:41.455Z,5.57
2016-10-16T02:32:41.524Z,5.46
2016-10-16T02:33:41.452Z,5.46
2016-10-16T02:34:41.405Z,5.45
2016-10-16T02:35:41.507Z,5.48
2016-10-16T02:36:41.449Z,5.52
2016-10-16T02:37:41.540Z,5.59
2016-10-16T02:38:41.455Z,5.51
2016-10-16T02:39:41.545Z,5.45
2016-10-16T02:40:41.468Z,5.41
2016-10-16T02:41:41.553Z,5.33
2016-10-16T02:42:41.537Z,5.45
2016-10-16T02:43:41.529Z,5.62
2016-10-16T02:44:41.496Z,5.69
2016-10-16T02:45:41.542Z,5.59
2016-10-16T02:46:41.475Z,5.54
2016-10-16T02:47:41.579Z,5.46
2016-10-16T02:48:41.491Z,5.46
2016-10-16T02:49:41.460Z,5.45
2016-10-16T02:50:41.524Z,5.49
2016-10-16T02:51:41.507Z,5.41
2016-10-16T02:52:41.472Z,5.37
2016-10-16T02:53:41.510Z,5.31
2016-10-16T02:54:41.516Z,5.26
2016-10-16T02:55:41.525Z,5.31
2016-10-16T02:56:41.553Z,5.16
2016-10-16T02:57:41.488Z,5.18
2016-10-16T02:58:41.570Z,5.2
2016-10-16T02:59:41.578Z,5.15
2016-10-16T03:00:41.521Z,5.09
2016-10-16T03:01:41.638Z,5.05
2016-10-16T03:02:41.463Z,5.05
2016-10-16T03:03:41.621Z,5.2
2016-10-16T03:04:41.581Z,5.21
2016-10-16T03:05:41.585Z,5.23
2016-10-16T03:06:41.578Z,5.13
2016-10-16T03:07:41.545Z,5.09
2016-10-16T03:08:41.552Z,5.06
2016-10-16T03:09:41.557Z,5.12
2016-10-16T03:10:41.554Z,5.15
2016-10-16T03:11:41.611Z,5.13
2016-10-16T03:12:41.638Z,5.18
2016-10-16T03:13:41.598Z,5.23
2016-10-16T03:14:41.567Z,5.08
2016-10-16T03:15:41.580Z,5.12
2016-10-16T03:16:41.599Z,5.15
2016-10-16T03:17:41.759Z,5.02
2016-10-16T03:18:41.625Z,5.09
2016-10-16T03:19:41.563Z,5.05
2016-10-16T03:20:41.610Z,5.06
2016-10-16T03:21:41.651Z,5.06
2016-10-16T03:22:41.604Z,5.06
2016-10-16T03:23:41.621Z,4.97
2016-10-16T03:24:41.677Z,4.97
2016-10-16T03:25:41.679Z,5.09
2016-10-16T03:26:41.634Z,5.03
2016-10-16T03:27:41.594Z,4.98
2016-10-16T03:28:41.600Z,4.95
2016-10-16T03:29:41.568Z,4.85
2016-10-16T03:30:41.607Z,4.97
2016-10-16T03:31:41.697Z,4.9
2016-10-16T03:32:41.657Z,4.84
2016-10-16T03:33:41.749Z,4.9
2016-10-16T03:34:41.694Z,4.92
2016-10-16T03:35:41.620Z,4.85
2016-10-16T03:36:41.615Z,4.92
2016-10-16T03:37:41.643Z,4.85
2016-10-16T03:38:41.727Z,4.91
2016-10-16T03:39:41.716Z,4.92
2016-10-16T03:40:41.606Z,4.85
2016-10-16T03:41:41.679Z,4.95
2016-10-16T03:42:41.652Z,4.79
2016-10-16T03:43:41.730Z,4.76
2016-10-16T03:44:41.715Z,4.72
2016-10-16T03:45:41.728Z,4.74
2016-10-16T03:46:41.742Z,4.71
2016-10-16T03:47:41.695Z,4.66
2016-10-16T03:48:41.594Z,4.66
2016-10-16T03:49:41.740Z,4.78
2016-10-16T03:50:41.658Z,4.94
2016-10-16T03:51:41.699Z,5.08
2016-10-16T03:52:41.721Z,5.3
2016-10-16T03:53:41.701Z,5.91
2016-10-16T03:54:41.792Z,5.92
2016-10-16T03:55:41.696Z,6.1
2016-10-16T03:56:41.737Z,6.28
2016-10-16T03:57:41.751Z,6.28
2016-10-16T03:58:41.754Z,6.25
2016-10-16T03:59:41.655Z,6.06
2016-10-16T04:00:41.698Z,5.98
2016-10-16T04:01:41.774Z,5.87
2016-10-16T04:02:41.783Z,5.78
2016-10-16T04:03:41.739Z,5.69
2016-10-16T04:04:41.733Z,5.63
2016-10-16T04:05:42.039Z,5.62
2016-10-16T04:06:41.751Z,5.55
2016-10-16T04:07:41.714Z,5.55
2016-10-16T04:08:41.800Z,5.54
2016-10-16T04:09:41.722Z,5.33
2016-10-16T04:10:41.818Z,5.6
2016-10-16T04:11:41.737Z,5.54
2016-10-16T04:12:41.703Z,5.48
2016-10-16T04:13:41.741Z,5.44
2016-10-16T04:14:41.778Z,5.41
2016-10-16T04:15:41.770Z,5.39
2016-10-16T04:16:41.744Z,5.37
2016-10-16T04:17:41.799Z,5.27
2016-10-16T04:18:41.738Z,5.41
2016-10-16T04:19:41.748Z,5.23
2016-10-16T04:20:41.821Z,5.13
2016-10-16T04:21:41.911Z,5.21
2016-10-16T04:22:41.770Z,5.23
2016-10-16T04:23:41.839Z,5.16
2016-10-16T04:24:41.763Z,5.49
2016-10-16T04:25:41.793Z,5.57
2016-10-16T04:26:41.783Z,5.72
2016-10-16T04:27:41.813Z,5.82
2016-10-16T04:28:41.769Z,5.87
2016-10-16T04:29:41.777Z,6.06
2016-10-16T04:30:41.835Z,5.92
2016-10-16T04:31:41.704Z,5.72
2016-10-16T04:32:41.736Z,5.64
2016-10-16T04:33:41.841Z,5.64
2016-10-16T04:34:41.757Z,5.52
2016-10-16T04:35:41.887Z,5.44
2016-10-16T04:36:41.776Z,5.28
2016-10-16T04:37:42.060Z,5.2
2016-10-16T04:38:41.733Z,5.13
2016-10-16T04:39:41.843Z,5.1
2016-10-16T04:40:41.843Z,5.1
2016-10-16T04:41:41.779Z,5.06
2016-10-16T04:42:41.866Z,5
2016-10-16T04:43:41.930Z,4.98
2016-10-16T04:44:41.851Z,4.88
2016-10-16T04:45:41.897Z,4.98
2016-10-16T04:46:41.914Z,4.91
2016-10-16T04:47:41.799Z,4.92
2016-10-16T04:48:41.796Z,4.83
2016-10-16T04:49:41.837Z,4.87
2016-10-16T04:50:41.913Z,4.91
2016-10-16T04:51:41.804Z,4.98
2016-10-16T04:52:41.919Z,5
2016-10-16T04:53:42.447Z,4.92
2016-10-16T04:54:41.916Z,4.98
2016-10-16T04:55:41.910Z,5.09
2016-10-16T04:56:41.919Z,4.91
2016-10-16T04:57:41.923Z,5
2016-10-16T04:58:41.946Z,4.88
2016-10-16T04:59:41.822Z,4.98
2016-10-16T05:00:41.778Z,4.94
2016-10-16T05:01:41.940Z,4.98
2016-10-16T05:02:41.827Z,4.92
2016-10-16T05:03:41.879Z,5.03
2016-10-16T05:04:41.942Z,4.97
2016-10-16T05:05:41.951Z,4.94
2016-10-16T05:06:41.846Z,4.87
2016-10-16T05:07:41.888Z,4.85
2016-10-16T05:08:41.956Z,4.79
2016-10-16T05:09:42.093Z,4.76
2016-10-16T05:10:41.903Z,4.71
2016-10-16T05:11:41.973Z,4.83
2016-10-16T05:12:41.941Z,4.66
2016-10-16T05:13:41.975Z,4.69
2016-10-16T05:14:41.964Z,4.76
2016-10-16T05:15:41.849Z,4.71
2016-10-16T05:16:41.929Z,4.57
2016-10-16T05:17:41.958Z,4.66
2016-10-16T05:18:42.383Z,4.54
2016-10-16T05:19:41.939Z,4.57
2016-10-16T05:20:41.926Z,4.53
2016-10-16T05:21:41.889Z,4.56
2016-10-16T05:22:41.874Z,4.57
2016-10-16T05:23:41.922Z,4.61
2016-10-16T05:24:41.938Z,4.58
2016-10-16T05:25:42.026Z,4.58
2016-10-16T05:26:41.920Z,4.58
2016-10-16T05:27:42.012Z,4.64
2016-10-16T05:28:41.975Z,4.56
2016-10-16T05:29:42.010Z,4.57
2016-10-16T05:30:42.052Z,4.48
2016-10-16T05:31:41.986Z,4.46
2016-10-16T05:32:41.875Z,4.44
2016-10-16T05:33:41.978Z,4.44
2016-10-16T05:34:42.027Z,4.46
2016-10-16T05:35:42.034Z,4.5
2016-10-16T05:36:42.009Z,4.42
2016-10-16T05:37:41.968Z,4.44
2016-10-16T05:38:41.965Z,4.33
2016-10-16T05:39:42.006Z,4.36
2016-10-16T05:40:41.983Z,4.32
2016-10-16T05:41:42.123Z,4.32
2016-10-16T05:42:42.025Z,4.33
2016-10-16T05:43:42.061Z,4.28
2016-10-16T05:44:41.984Z,4.22
2016-10-16T05:45:42.008Z,4.2
2016-10-16T05:46:42.026Z,4.33
2016-10-16T05:47:42.038Z,4.3
2016-10-16T05:48:41.943Z,4.35
2016-10-16T05:49:42.038Z,4.36
2016-10-16T05:50:42.024Z,4.38
2016-10-16T05:51:42.054Z,4.38
2016-10-16T05:52:42.017Z,4.6
2016-10-16T05:53:42.018Z,4.54
2016-10-16T05:54:41.961Z,4.61
2016-10-16T05:55:42.090Z,4.6
2016-10-16T05:56:42.012Z,4.65
2016-10-16T05:57:42.262Z,4.56
2016-10-16T05:58:41.944Z,4.54
2016-10-16T05:59:42.084Z,4.64
2016-10-16T06:00:41.967Z,4.56
2016-10-16T06:01:42.026Z,4.56
2016-10-16T06:02:41.968Z,4.51
2016-10-16T06:03:41.986Z,4.47
2016-10-16T06:04:42.005Z,4.21
2016-10-16T06:05:42.030Z,4.42
2016-10-16T06:06:42.126Z,4.4
2016-10-16T06:07:42.007Z,4.42
2016-10-16T06:08:42.084Z,4.4
2016-10-16T06:09:42.088Z,4.29
2016-10-16T06:10:42.002Z,4.3
2016-10-16T06:11:42.127Z,4.3
2016-10-16T06:12:42.013Z,4.29
2016-10-16T06:13:42.255Z,4.44
2016-10-16T06:14:42.013Z,4.29
2016-10-16T06:15:42.141Z,4.32
2016-10-16T06:16:42.115Z,4.33
2016-10-16T06:17:42.146Z,4.39
2016-10-16T06:18:42.175Z,4.35
2016-10-16T06:19:42.155Z,4.42
2016-10-16T06:20:42.166Z,4.44
2016-10-16T06:21:42.117Z,4.48
2016-10-16T06:22:42.168Z,4.76
2016-10-16T06:23:42.055Z,5.26
2016-10-16T06:24:42.127Z,5.57
2016-10-16T06:25:42.139Z,5.75
2016-10-16T06:26:42.126Z,5.69
2016-10-16T06:27:42.101Z,5.63
2016-10-16T06:28:42.141Z,5.69
2016-10-16T06:29:42.208Z,5.63
2016-10-16T06:30:42.116Z,5.41
2016-10-16T06:31:42.111Z,5.34
2016-10-16T06:32:42.180Z,5.33
2016-10-16T06:33:42.034Z,5.34
2016-10-16T06:34:42.049Z,5.31
2016-10-16T06:35:42.216Z,5.77
2016-10-16T06:36:42.105Z,6.02
2016-10-16T06:37:42.113Z,5.91
2016-10-16T06:38:42.187Z,5.82
2016-10-16T06:39:42.118Z,5.75
2016-10-16T06:40:42.126Z,6.02
2016-10-16T06:41:42.178Z,6.2
2016-10-16T06:42:42.100Z,6.2
2016-10-16T06:43:42.219Z,6.18
2016-10-16T06:44:42.138Z,6.31
2016-10-16T06:45:42.346Z,6.1
2016-10-16T06:46:42.076Z,6.09
2016-10-16T06:47:42.183Z,6
2016-10-16T06:48:42.240Z,6.06
2016-10-16T06:49:42.226Z,6.29
2016-10-16T06:50:42.107Z,6.2
2016-10-16T06:51:42.187Z,6.1
2016-10-16T06:52:42.127Z,6.02
2016-10-16T06:53:42.169Z,5.89
2016-10-16T06:54:42.250Z,5.91
2016-10-16T06:55:42.172Z,5.81
2016-10-16T06:56:42.192Z,5.8
2016-10-16T06:57:42.189Z,6.02
2016-10-16T06:58:42.150Z,6.09
2016-10-16T06:59:42.204Z,6.18
2016-10-16T07:00:42.181Z,6.73
2016-10-16T07:01:42.371Z,6.9
2016-10-16T07:02:42.194Z,7.09
2016-10-16T07:03:42.278Z,7
2016-10-16T07:04:42.249Z,6.8
2016-10-16T07:05:42.199Z,7.05
2016-10-16T07:06:42.217Z,7.12
2016-10-16T07:07:42.287Z,7.27
2016-10-16T07:08:42.252Z,7.19
2016-10-16T07:09:42.289Z,7.22
2016-10-16T07:10:42.220Z,7.13
2016-10-16T07:11:42.191Z,7.08
2016-10-16T07:12:42.262Z,7.49
2016-10-16T07:13:42.265Z,7.96
2016-10-16T07:14:42.311Z,7.99
2016-10-16T07:15:42.257Z,8.32
2016-10-16T07:16:42.195Z,8.43
2016-10-16T07:17:42.354Z,8.46
2016-10-16T07:18:42.269Z,8.57
2016-10-16T07:19:42.317Z,8.47
2016-10-16T07:20:42.273Z,8.67
2016-10-16T07:21:42.250Z,8.8
2016-10-16T07:22:42.406Z,9.09
2016-10-16T07:23:42.293Z,9.11
2016-10-16T07:24:42.248Z,9.16
2016-10-16T07:25:42.260Z,9.14
2016-10-16T07:26:42.248Z,9.27
2016-10-16T07:27:42.264Z,9.45
2016-10-16T07:28:42.195Z,9.44
2016-10-16T07:29:42.235Z,9.45
2016-10-16T07:30:42.355Z,9.63
2016-10-16T07:31:42.354Z,9.75
2016-10-16T07:32:42.228Z,9.81
2016-10-16T07:33:42.467Z,9.92
2016-10-16T07:34:42.330Z,9.89
2016-10-16T07:35:42.302Z,9.93
2016-10-16T07:36:42.330Z,9.9
2016-10-16T07:37:42.292Z,10.02
2016-10-16T07:38:42.388Z,10.08
2016-10-16T07:39:42.334Z,10.14
2016-10-16T07:40:42.252Z,10.2
2016-10-16T07:41:42.390Z,10.35
2016-10-16T07:42:42.338Z,10.29
2016-10-16T07:43:42.308Z,10.36
2016-10-16T07:44:42.391Z,10.47
2016-10-16T07:45:42.235Z,10.42
2016-10-16T07:46:42.381Z,10.38
2016-10-16T07:47:42.313Z,10.25
2016-10-16T07:48:42.275Z,10.38
2016-10-16T07:49:42.431Z,10.52
2016-10-16T07:50:42.342Z,10.25
2016-10-16T07:51:42.401Z,10.11
2016-10-16T07:52:42.289Z,10.15
2016-10-16T07:53:42.419Z,10.28
2016-10-16T07:54:42.397Z,10.38
2016-10-16T07:55:42.431Z,10.52
2016-10-16T07:56:42.425Z,10.59
2016-10-16T07:57:42.428Z,10.52
2016-10-16T07:58:42.353Z,10.72
2016-10-16T07:59:42.389Z,11.05
2016-10-16T08:00:42.433Z,11.41
2016-10-16T08:01:42.362Z,11.63
2016-10-16T08:02:42.371Z,11.45
2016-10-16T08:03:42.353Z,11.56
2016-10-16T08:04:42.406Z,11.84
2016-10-16T08:05:42.486Z,12.04
2016-10-16T08:06:42.335Z,12.36
2016-10-16T08:07:42.409Z,12.47
2016-10-16T08:08:42.458Z,12.61
2016-10-16T08:09:42.412Z,12.94
2016-10-16T08:10:42.420Z,13.16
2016-10-16T08:11:42.403Z,13.09
2016-10-16T08:12:42.343Z,13.07
2016-10-16T08:13:42.417Z,12.61
2016-10-16T08:14:42.406Z,12.36
2016-10-16T08:15:42.489Z,12.45
2016-10-16T08:16:42.395Z,12.71
2016-10-16T08:17:42.453Z,12.92
2016-10-16T08:18:42.442Z,12.8
2016-10-16T08:19:42.424Z,13.03
2016-10-16T08:20:42.490Z,13.19
2016-10-16T08:21:42.722Z,13.29
2016-10-16T08:22:42.422Z,13.31
2016-10-16T08:23:42.377Z,13.16
2016-10-16T08:24:42.375Z,13.14
2016-10-16T08:25:42.436Z,12.88
2016-10-16T08:26:42.390Z,12.78
2016-10-16T08:27:42.435Z,12.53
2016-10-16T08:28:42.495Z,12.51
2016-10-16T08:29:42.445Z,12.56
2016-10-16T08:30:42.366Z,12.45
2016-10-16T08:31:42.395Z,12.15
2016-10-16T08:32:42.431Z,11.81
2016-10-16T08:33:42.467Z,11.89
2016-10-16T08:34:42.483Z,11.85
2016-10-16T08:35:42.527Z,12.08
2016-10-16T08:36:42.471Z,12.25
2016-10-16T08:37:42.570Z,12.61
2016-10-16T08:38:42.506Z,12.73
2016-10-16T08:39:42.469Z,12.78
2016-10-16T08:40:42.540Z,12.51
2016-10-16T08:41:42.465Z,12.47
2016-10-16T08:42:42.500Z,12.7
2016-10-16T08:43:42.481Z,12.99
2016-10-16T08:44:42.525Z,13.32
2016-10-16T08:45:42.502Z,13.35
2016-10-16T08:46:42.566Z,13.58
2016-10-16T08:47:42.449Z,13.7
2016-10-16T08:48:42.568Z,13.78
2016-10-16T08:49:42.537Z,14.02
2016-10-16T08:50:42.553Z,13.88
2016-10-16T08:51:42.540Z,13.84
2016-10-16T08:52:42.510Z,13.87
2016-10-16T08:53:42.651Z,14.02
2016-10-16T08:54:42.512Z,13.99
2016-10-16T08:55:42.572Z,13.53
2016-10-16T08:56:42.556Z,13.28
2016-10-16T08:57:42.524Z,13.16
2016-10-16T08:58:42.583Z,12.99
2016-10-16T08:59:42.562Z,13.06
2016-10-16T09:00:42.449Z,13.2
2016-10-16T09:01:42.630Z,13.37
2016-10-16T09:02:42.909Z,13.31
2016-10-16T09:03:42.490Z,13.62
2016-10-16T09:04:42.613Z,13.42
2016-10-16T09:05:42.709Z,14.01
2016-10-16T09:06:42.654Z,13.75
2016-10-16T09:07:42.592Z,14.09
2016-10-16T09:08:42.639Z,14.36
2016-10-16T09:09:42.720Z,14.13
2016-10-16T09:10:42.516Z,14.49
2016-10-16T09:11:42.556Z,14.45
2016-10-16T09:12:42.647Z,14.69
2016-10-16T09:13:42.572Z,14.95
2016-10-16T09:14:42.615Z,14.93
2016-10-16T09:15:42.652Z,14.9
2016-10-16T09:16:42.648Z,14.48
2016-10-16T09:17:42.612Z,14.45
2016-10-16T09:18:42.513Z,14.85
2016-10-16T09:19:42.508Z,15.13
2016-10-16T09:20:42.589Z,15.19
2016-10-16T09:21:42.624Z,15.3
2016-10-16T09:22:42.681Z,15.38
2016-10-16T09:23:42.636Z,15.04
2016-10-16T09:24:42.814Z,15.19
2016-10-16T09:25:42.722Z,15.04
2016-10-16T09:26:42.554Z,15.3
2016-10-16T09:27:42.687Z,14.93
2016-10-16T09:28:42.684Z,15.26
2016-10-16T09:29:42.581Z,15.52
2016-10-16T09:30:42.718Z,15.53
2016-10-16T09:31:42.654Z,16.02
2016-10-16T09:32:42.615Z,16.3
2016-10-16T09:33:42.694Z,16.62
2016-10-16T09:34:42.675Z,16.67
2016-10-16T09:35:42.561Z,16.25
2016-10-16T09:36:42.594Z,16.07
2016-10-16T09:37:42.608Z,16.25
2016-10-16T09:38:42.716Z,16.8
2016-10-16T09:39:42.728Z,17.32
2016-10-16T09:40:42.660Z,17.55
2016-10-16T09:41:42.756Z,17.73
2016-10-16T09:42:42.645Z,17.63
2016-10-16T09:43:43.279Z,17.18
2016-10-16T09:44:42.754Z,16.81
2016-10-16T09:45:42.665Z,16.62
2016-10-16T09:46:42.758Z,16.27
2016-10-16T09:47:42.748Z,16.1
2016-10-16T09:48:42.709Z,15.91
2016-10-16T09:49:42.613Z,15.55
2016-10-16T09:50:42.725Z,16.04
2016-10-16T09:51:42.699Z,15.71
2016-10-16T09:52:42.773Z,15.73
2016-10-16T09:53:42.693Z,15.8
2016-10-16T09:54:42.695Z,15.83
2016-10-16T09:55:42.739Z,15.75
2016-10-16T09:56:42.796Z,15.96
2016-10-16T09:57:42.851Z,15.98
2016-10-16T09:58:42.742Z,16.07
2016-10-16T09:59:42.711Z,15.75
2016-10-16T10:00:42.706Z,15.83
2016-10-16T10:01:42.811Z,15.86
2016-10-16T10:02:42.768Z,15.92
2016-10-16T10:03:42.814Z,15.95
2016-10-16T10:04:42.801Z,16.17
2016-10-16T10:05:42.726Z,17.03
2016-10-16T10:06:42.776Z,17.65
2016-10-16T10:07:42.802Z,17.65
2016-10-16T10:08:42.758Z,17.73
2016-10-16T10:09:42.739Z,17.55
2016-10-16T10:10:42.700Z,17.54
2016-10-16T10:11:42.776Z,16.84
2016-10-16T10:12:42.823Z,17.12
2016-10-16T10:13:42.862Z,17.46
2016-10-16T10:14:42.846Z,17.73
2016-10-16T10:15:42.678Z,18.08
2016-10-16T10:16:42.795Z,18.1
2016-10-16T10:17:42.746Z,18.03
2016-10-16T10:18:42.856Z,17.87
2016-10-16T10:19:42.762Z,17.84
2016-10-16T10:20:42.760Z,17.43
2016-10-16T10:21:42.859Z,17.1
2016-10-16T10:22:42.737Z,16.95
2016-10-16T10:23:42.764Z,17.54
2016-10-16T10:24:42.814Z,17.87
2016-10-16T10:25:42.892Z,17.86
2016-10-16T10:26:42.917Z,18.17
2016-10-16T10:27:42.772Z,18.54
2016-10-16T10:28:42.829Z,18.24
2016-10-16T10:29:43.068Z,18.31
2016-10-16T10:30:42.872Z,18.27
2016-10-16T10:31:42.802Z,18.53
2016-10-16T10:32:42.852Z,18.68
2016-10-16T10:33:42.880Z,18.87
2016-10-16T10:34:42.874Z,19.3
2016-10-16T10:35:42.846Z,19.47
2016-10-16T10:36:42.856Z,18.81
2016-10-16T10:37:42.898Z,18.82
2016-10-16T10:38:42.894Z,18.86
2016-10-16T10:39:42.896Z,18.54
2016-10-16T10:40:42.905Z,18.13
2016-10-16T10:41:42.866Z,18.21
2016-10-16T10:42:42.842Z,18.27
2016-10-16T10:43:42.875Z,18.23
2016-10-16T10:44:42.942Z,17.98
2016-10-16T10:45:42.957Z,18.17
2016-10-16T10:46:42.846Z,18.27
2016-10-16T10:47:42.889Z,18.81
2016-10-16T10:48:42.895Z,19
2016-10-16T10:49:42.886Z,19.05
2016-10-16T10:50:42.970Z,18.97
2016-10-16T10:51:42.858Z,18.97
2016-10-16T10:52:42.942Z,19.16
2016-10-16T10:53:42.837Z,19.3
2016-10-16T10:54:42.869Z,19.56
2016-10-16T10:55:42.894Z,19.79
2016-10-16T10:56:42.953Z,19.98
2016-10-16T10:57:42.866Z,19.82
2016-10-16T10:58:42.942Z,19.47
2016-10-16T10:59:42.809Z,19.49
2016-10-16T11:00:42.948Z,20.34
2016-10-16T11:01:43.079Z,20.22
2016-10-16T11:02:42.970Z,19.45
2016-10-16T11:03:42.861Z,19.19
2016-10-16T11:04:42.983Z,18.75
2016-10-16T11:05:42.896Z,18.49
2016-10-16T11:06:42.852Z,18.72
2016-10-16T11:07:42.968Z,18.94
2016-10-16T11:08:42.981Z,19.19
2016-10-16T11:09:42.987Z,18.94
2016-10-16T11:10:43.015Z,18.66
2016-10-16T11:11:42.992Z,18.57
2016-10-16T11:12:42.969Z,19.07
2016-10-16T11:13:42.929Z,19.64
2016-10-16T11:14:42.972Z,19.67
2016-10-16T11:15:42.964Z,19.71
2016-10-16T11:16:42.956Z,20
2016-10-16T11:17:43.126Z,20.32
2016-10-16T11:18:42.933Z,20.38
2016-10-16T11:19:42.894Z,20.58
2016-10-16T11:20:42.892Z,20.61
2016-10-16T11:21:42.932Z,20.23
2016-10-16T11:22:43.047Z,19.6
2016-10-16T11:23:43.046Z,19.65
2016-10-16T11:24:42.989Z,19.8
2016-10-16T11:25:43.015Z,20.1
2016-10-16T11:26:42.917Z,20.29
2016-10-16T11:27:42.949Z,20.57
2016-10-16T11:28:42.886Z,20.96
2016-10-16T11:29:43.003Z,20.78
2016-10-16T11:30:42.907Z,20.15
2016-10-16T11:31:42.975Z,19.87
2016-10-16T11:32:43.013Z,19.49
2016-10-16T11:33:43.794Z,18.72
2016-10-16T11:34:43.040Z,18.65
2016-10-16T11:35:43.065Z,18.69
2016-10-16T11:36:43.090Z,19.47
2016-10-16T11:37:43.079Z,20.04
2016-10-16T11:38:43.045Z,20.4
2016-10-16T11:39:43.039Z,20.85
2016-10-16T11:40:43.035Z,21.03
2016-10-16T11:41:43.033Z,21.43
2016-10-16T11:42:43.050Z,21.62
2016-10-16T11:43:43.035Z,21.37
2016-10-16T11:44:43.055Z,21.08
2016-10-16T11:45:42.991Z,21.11
2016-10-16T11:46:43.060Z,21.04
2016-10-16T11:47:43.108Z,20.63
2016-10-16T11:48:43.069Z,20.42
2016-10-16T11:49:43.141Z,20.4
2016-10-16T11:50:43.031Z,20.61
2016-10-16T11:51:42.957Z,20.15
2016-10-16T11:52:43.039Z,20.05
2016-10-16T11:53:42.985Z,20.61
2016-10-16T11:54:43.066Z,20.96
2016-10-16T11:55:43.032Z,20.4
2016-10-16T11:56:43.078Z,19.6
2016-10-16T11:57:43.051Z,19.87
2016-10-16T11:58:43.054Z,20.46
2016-10-16T11:59:43.107Z,21.04
2016-10-16T12:00:43.508Z,20.98
2016-10-16T12:01:43.158Z,20.94
2016-10-16T12:02:43.073Z,21.19
2016-10-16T12:03:43.152Z,21.53
2016-10-16T12:04:43.069Z,21.61
2016-10-16T12:05:43.148Z,21.3
2016-10-16T12:06:43.145Z,21.43
2016-10-16T12:07:43.148Z,21.15
2016-10-16T12:08:43.082Z,21.06
2016-10-16T12:09:43.122Z,21.41
2016-10-16T12:10:43.183Z,21.51
2016-10-16T12:11:43.134Z,21.66
2016-10-16T12:12:43.140Z,22.14
2016-10-16T12:13:43.112Z,21.99
2016-10-16T12:14:43.185Z,22.41
2016-10-16T12:15:43.025Z,21.86
2016-10-16T12:16:43.177Z,21.8
2016-10-16T12:17:43.123Z,21.23
2016-10-16T12:18:43.210Z,20.93
2016-10-16T12:19:43.207Z,21.04
2016-10-16T12:20:43.156Z,20.34
2016-10-16T12:21:43.321Z,20.35
2016-10-16T12:22:43.061Z,20.79
2016-10-16T12:23:43.065Z,20.49
2016-10-16T12:24:43.144Z,21.23
2016-10-16T12:25:43.235Z,21.62
2016-10-16T12:26:43.083Z,21.45
2016-10-16T12:27:43.106Z,21.53
2016-10-16T12:28:43.181Z,21.58
2016-10-16T12:29:43.106Z,21.27
2016-10-16T12:30:43.206Z,20.93
2016-10-16T12:31:43.196Z,20.83
2016-10-16T12:32:43.225Z,20.93
2016-10-16T12:33:43.202Z,21.08
2016-10-16T12:34:43.236Z,21.46
2016-10-16T12:35:43.203Z,21.31
2016-10-16T12:36:43.167Z,21.33
2016-10-16T12:37:43.287Z,21.9
2016-10-16T12:38:43.208Z,21.38
2016-10-16T12:39:43.176Z,20.86
2016-10-16T12:40:43.175Z,21.09
2016-10-16T12:41:43.212Z,20.94
2016-10-16T12:42:43.281Z,21.16
2016-10-16T12:43:43.191Z,21.28
2016-10-16T12:44:43.140Z,21.78
2016-10-16T12:45:43.231Z,20.76
2016-10-16T12:46:43.271Z,20.02
2016-10-16T12:47:43.236Z,20.57
2016-10-16T12:48:43.284Z,20.9
2016-10-16T12:49:43.240Z,20.64
2016-10-16T12:50:43.138Z,20.1
2016-10-16T12:51:43.215Z,20.61
2016-10-16T12:52:43.294Z,20.64
2016-10-16T12:53:43.414Z,20.44
2016-10-16T12:54:43.225Z,20.25
2016-10-16T12:55:43.291Z,20.64
2016-10-16T12:56:43.264Z,21.18
2016-10-16T12:57:43.259Z,21.41
2016-10-16T12:58:43.295Z,21.37
2016-10-16T12:59:43.254Z,20.9
2016-10-16T13:00:43.252Z,20.6
2016-10-16T13:01:43.322Z,20.6
2016-10-16T13:02:43.313Z,21.08
2016-10-16T13:03:43.282Z,21.61
2016-10-16T13:04:43.206Z,22.12
2016-10-16T13:05:43.339Z,22.67
2016-10-16T13:06:43.292Z,22.75
2016-10-16T13:07:43.228Z,22.04
2016-10-16T13:08:43.316Z,21.25
2016-10-16T13:09:43.378Z,21.36
2016-10-16T13:10:43.352Z,21.21